Time,TemperatureF,DewpointF,PressureIn,WindDirection,WindDirectionDegrees,WindSpeedMPH,WindSpeedGustMPH,Humidity,HourlyPrecipIn,Conditions,Clouds,dailyrainin,SoftwareType,DateUTC
2013-02-26 08:51:00,-999.0,-99.9,0.00,North,-999,-999.0,-999.0,-999,0.00,,,0.00,weatherlink.com 1.10,2013-02-26 13:51:00,
2013-02-26 09:05:00,31.9,31.0,30.32,NW,320,0.0,1.0,98,0.00,,,0.00,weatherlink.com 1.10,2013-02-26 14:05:00,
2013-02-26 09:20:00,32.1,32.0,30.32,NW,317,0.0,1.0,98,0.00,,,0.00,weatherlink.com 1.10,2013-02-26 14:20:00,
2013-02-26 09:35:00,32.8,33.0,30.32,West,266,0.0,0.0,99,0.00,,,0.00,weatherlink.com 1.10,2013-02-26 14:35:00,
2013-02-26 09:50:00,32.4,32.0,30.32,NNW,328,0.0,2.0,98,0.00,,,0.00,weatherlink.com 1.10,2013-02-26 14:50:00,
2013-02-26 10:05:00,33.1,33.0,30.31,West,266,1.0,1.0,98,0.00,,,0.00,weatherlink.com 1.10,2013-02-26 15:05:00,
2013-02-26 10:20:00,33.0,33.0,30.30,West,278,0.0,2.0,98,0.00,,,0.00,weatherlink.com 1.10,2013-02-26 15:20:00,
2013-02-26 10:35:00,33.2,33.0,30.30,West,274,0.0,2.0,98,0.00,,,0.00,weatherlink.com 1.10,2013-02-26 15:35:00,
2013-02-26 10:50:00,34.0,34.0,30.30,West,272,0.0,1.0,98,0.00,,,0.00,weatherlink.com 1.10,2013-02-26 15:50:00,
2013-02-26 11:05:00,34.0,33.0,30.30,WNW,296,0.0,3.0,95,0.00,,,0.00,weatherlink.com 1.10,2013-02-26 16:05:00,
2013-02-26 11:20:00,34.0,33.0,30.30,WNW,294,1.0,1.0,95,0.00,,,0.00,weatherlink.com 1.10,2013-02-26 16:20:00,
2013-02-26 11:35:00,34.3,33.0,30.30,West,275,1.0,5.0,94,0.00,,,0.00,weatherlink.com 1.10,2013-02-26 16:35:00,
2013-02-26 11:50:00,34.8,33.0,30.29,SW,229,0.0,3.0,93,0.00,,,0.00,weatherlink.com 1.10,2013-02-26 16:50:00,
2013-02-26 12:05:00,35.7,33.0,30.29,WSW,243,0.0,5.0,91,0.00,,,0.00,weatherlink.com 1.10,2013-02-26 17:05:00,
2013-02-26 12:20:00,37.1,34.0,30.28,SSW,208,0.0,2.0,89,0.00,,,0.00,weatherlink.com 1.10,2013-02-26 17:20:00,
2013-02-26 12:35:00,38.1,35.0,30.27,South,178,1.0,2.0,87,0.00,,,0.00,weatherlink.com 1.10,2013-02-26 17:35:00,
2013-02-26 12:50:00,38.9,34.0,30.27,SW,214,0.0,2.0,82,0.00,,,0.00,weatherlink.com 1.10,2013-02-26 17:50:00,
2013-02-26 13:05:00,40.0,35.0,30.27,WSW,242,0.0,2.0,81,0.00,,,0.00,weatherlink.com 1.10,2013-02-26 18:05:00,
2013-02-26 13:20:00,40.7,33.0,30.26,South,187,2.0,5.0,73,0.00,,,0.00,weatherlink.com 1.10,2013-02-26 18:20:00,
2013-02-26 13:35:00,41.8,32.0,30.26,SW,219,1.0,2.0,69,0.00,,,0.00,weatherlink.com 1.10,2013-02-26 18:35:00,
2013-02-26 13:50:00,41.9,33.0,30.25,SW,236,0.0,3.0,70,0.00,,,0.00,weatherlink.com 1.10,2013-02-26 18:50:00,
2013-02-26 14:06:00,42.2,32.0,30.24,NW,323,0.0,2.0,68,0.00,,,0.00,weatherlink.com 1.10,2013-02-26 19:06:00,
2013-02-26 14:21:00,41.3,32.0,30.23,North,2,0.0,1.0,69,0.00,,,0.00,weatherlink.com 1.10,2013-02-26 19:21:00,
2013-02-26 14:36:00,41.6,33.0,30.22,ESE,113,0.0,3.0,71,0.00,,,0.00,weatherlink.com 1.10,2013-02-26 19:36:00,
2013-02-26 14:51:00,41.5,33.0,30.22,North,11,2.0,3.0,72,0.00,,,0.00,weatherlink.com 1.10,2013-02-26 19:51:00,
2013-02-26 15:06:00,41.6,33.0,30.21,ESE,113,2.0,3.0,71,0.00,,,0.00,weatherlink.com 1.10,2013-02-26 20:06:00,
2013-02-26 15:21:00,41.8,33.0,30.21,SSW,198,0.0,3.0,71,0.00,,,0.00,weatherlink.com 1.10,2013-02-26 20:21:00,
2013-02-26 15:36:00,41.7,33.0,30.21,SSW,196,0.0,1.0,72,0.00,,,0.00,weatherlink.com 1.10,2013-02-26 20:36:00,
2013-02-26 15:52:00,41.4,33.0,30.20,SE,128,0.0,2.0,71,0.00,,,0.00,weatherlink.com 1.10,2013-02-26 20:52:00,
2013-02-26 16:06:00,41.3,33.0,30.20,South,191,0.0,1.0,71,0.00,,,0.00,weatherlink.com 1.10,2013-02-26 21:06:00,
2013-02-26 16:21:00,41.2,32.0,30.20,South,191,0.0,1.0,71,0.00,,,0.00,weatherlink.com 1.10,2013-02-26 21:21:00,
2013-02-26 16:36:00,40.9,33.0,30.20,South,191,0.0,0.0,72,0.00,,,0.00,weatherlink.com 1.10,2013-02-26 21:36:00,
2013-02-26 16:51:00,40.8,32.0,30.20,SSW,206,0.0,2.0,71,0.00,,,0.00,weatherlink.com 1.10,2013-02-26 21:51:00,
2013-02-26 17:06:00,40.5,32.0,30.20,SSW,206,0.0,1.0,73,0.00,,,0.00,weatherlink.com 1.10,2013-02-26 22:06:00,
2013-02-26 17:21:00,39.9,32.0,30.20,SSW,206,2.0,2.0,72,0.00,,,0.00,weatherlink.com 1.10,2013-02-26 22:21:00,
2013-02-26 17:36:00,39.8,31.0,30.20,SSW,211,2.0,3.0,70,0.00,,,0.00,weatherlink.com 1.10,2013-02-26 22:36:00,
2013-02-26 17:51:00,39.9,31.0,30.20,East,91,2.0,5.0,70,0.00,,,0.00,weatherlink.com 1.10,2013-02-26 22:51:00,
2013-02-26 18:06:00,39.8,31.0,30.20,SSE,161,3.0,5.0,70,0.00,,,0.00,weatherlink.com 1.10,2013-02-26 23:06:00,
2013-02-26 18:21:00,39.6,31.0,30.20,ESE,111,1.0,4.0,71,0.00,,,0.00,weatherlink.com 1.10,2013-02-26 23:21:00,
2013-02-26 18:36:00,39.4,31.0,30.18,South,176,0.0,3.0,71,0.00,,,0.00,weatherlink.com 1.10,2013-02-26 23:36:00,
2013-02-26 18:52:00,39.3,31.0,30.19,SSW,209,1.0,5.0,71,0.00,,,0.00,weatherlink.com 1.10,2013-02-26 23:52:00,
2013-02-26 19:06:00,39.2,31.0,30.19,South,191,2.0,5.0,71,0.00,,,0.00,weatherlink.com 1.10,2013-02-27 00:06:00,
2013-02-26 19:21:00,39.0,31.0,30.19,South,190,1.0,5.0,72,0.00,,,0.00,weatherlink.com 1.10,2013-02-27 00:21:00,
2013-02-26 19:36:00,39.1,30.0,30.20,South,190,1.0,6.0,71,0.00,,,0.00,weatherlink.com 1.10,2013-02-27 00:36:00,
2013-02-26 19:51:00,38.9,31.0,30.20,South,179,2.0,3.0,72,0.00,,,0.00,weatherlink.com 1.10,2013-02-27 00:51:00,
2013-02-26 20:06:00,39.0,30.0,30.20,SSW,199,1.0,6.0,71,0.00,,,0.00,weatherlink.com 1.10,2013-02-27 01:06:00,
2013-02-26 20:21:00,39.0,31.0,30.20,SSW,211,2.0,7.0,72,0.00,,,0.00,weatherlink.com 1.10,2013-02-27 01:21:00,
2013-02-26 20:36:00,38.8,30.0,30.20,SSW,202,0.0,3.0,72,0.00,,,0.00,weatherlink.com 1.10,2013-02-27 01:36:00,
2013-02-26 20:51:00,38.6,31.0,30.18,SSW,192,0.0,3.0,73,0.00,,,0.00,weatherlink.com 1.10,2013-02-27 01:51:00,
2013-02-26 21:06:00,38.4,31.0,30.18,SSW,202,1.0,3.0,74,0.00,,,0.00,weatherlink.com 1.10,2013-02-27 02:06:00,
2013-02-26 21:36:00,38.5,31.0,30.16,SSW,198,2.0,9.0,75,0.00,,,0.00,weatherlink.com 1.10,2013-02-27 02:36:00,
2013-02-26 21:51:00,38.6,31.0,30.16,SSW,203,3.0,10.0,73,0.00,,,0.00,weatherlink.com 1.10,2013-02-27 02:51:00,
2013-02-26 22:06:00,38.5,30.0,30.16,South,184,5.0,10.0,71,0.00,,,0.00,weatherlink.com 1.10,2013-02-27 03:06:00,
2013-02-26 22:21:00,38.4,29.0,30.15,South,190,2.0,12.0,70,0.00,,,0.00,weatherlink.com 1.10,2013-02-27 03:21:00,
2013-02-26 22:36:00,38.3,29.0,30.14,South,187,4.0,9.0,70,0.00,,,0.00,weatherlink.com 1.10,2013-02-27 03:36:00,
2013-02-26 22:51:00,38.1,29.0,30.12,South,184,3.0,6.0,71,0.00,,,0.00,weatherlink.com 1.10,2013-02-27 03:51:00,
2013-02-26 23:06:00,37.9,29.0,30.11,SSW,202,1.0,7.0,71,0.00,,,0.00,weatherlink.com 1.10,2013-02-27 04:06:00,
2013-02-26 23:21:00,37.5,29.0,30.10,SSW,198,0.0,6.0,71,0.00,,,0.00,weatherlink.com 1.10,2013-02-27 04:21:00,
2013-02-26 23:36:00,37.0,29.0,30.09,SSW,198,0.0,1.0,73,0.00,,,0.00,weatherlink.com 1.10,2013-02-27 04:36:00,
2013-02-26 23:52:00,36.2,29.0,30.09,SSW,198,0.0,0.0,75,0.00,,,0.00,weatherlink.com 1.10,2013-02-27 04:52:00,